sensor_id;sensor_type;location;lat;lon;timestamp;P1;durP1;ratioP1;P2;durP2;ratioP2
42110;SDS011;27766;52.174;5.456;2023-04-25T00:00:16;21.73;;;5.65;;
42110;SDS011;27766;52.174;5.456;2023-04-25T00:02:44;14.10;;;3.78;;
42110;SDS011;27766;52.174;5.456;2023-04-25T00:05:11;13.45;;;3.88;;
42110;SDS011;27766;52.174;5.456;2023-04-25T00:07:39;25.77;;;4.82;;
42110;SDS011;27766;52.174;5.456;2023-04-25T00:10:09;11.68;;;3.53;;
42110;SDS011;27766;52.174;5.456;2023-04-25T00:12:37;10.75;;;4.25;;
42110;SDS011;27766;52.174;5.456;2023-04-25T00:15:05;20.83;;;4.35;;
42110;SDS011;27766;52.174;5.456;2023-04-25T00:17:33;15.75;;;4.32;;
42110;SDS011;27766;52.174;5.456;2023-04-25T00:20:01;15.27;;;3.33;;
42110;SDS011;27766;52.174;5.456;2023-04-25T00:22:32;18.98;;;4.55;;
42110;SDS011;27766;52.174;5.456;2023-04-25T00:25:00;17.45;;;3.78;;
42110;SDS011;27766;52.174;5.456;2023-04-25T00:27:28;15.27;;;3.88;;
42110;SDS011;27766;52.174;5.456;2023-04-25T00:29:55;13.93;;;3.42;;
42110;SDS011;27766;52.174;5.456;2023-04-25T00:32:22;25.17;;;5.18;;
42110;SDS011;27766;52.174;5.456;2023-04-25T00:34:49;15.23;;;4.60;;
42110;SDS011;27766;52.174;5.456;2023-04-25T00:37:16;15.85;;;5.00;;
42110;SDS011;27766;52.174;5.456;2023-04-25T00:39:44;18.90;;;5.28;;
42110;SDS011;27766;52.174;5.456;2023-04-25T00:42:11;15.27;;;4.28;;
42110;SDS011;27766;52.174;5.456;2023-04-25T00:44:39;11.10;;;3.65;;
42110;SDS011;27766;52.174;5.456;2023-04-25T00:47:06;14.57;;;4.00;;
42110;SDS011;27766;52.174;5.456;2023-04-25T00:49:34;16.75;;;4.60;;
42110;SDS011;27766;52.174;5.456;2023-04-25T00:52:01;13.75;;;4.25;;
42110;SDS011;27766;52.174;5.456;2023-04-25T00:54:28;16.02;;;4.25;;
42110;SDS011;27766;52.174;5.456;2023-04-25T00:56:55;16.00;;;3.55;;
42110;SDS011;27766;52.174;5.456;2023-04-25T00:59:22;10.65;;;3.90;;
42110;SDS011;27766;52.174;5.456;2023-04-25T01:01:50;18.63;;;4.72;;
42110;SDS011;27766;52.174;5.456;2023-04-25T01:04:18;11.90;;;3.63;;
42110;SDS011;27766;52.174;5.456;2023-04-25T01:06:45;19.23;;;4.35;;
42110;SDS011;27766;52.174;5.456;2023-04-25T01:09:12;12.68;;;4.55;;
42110;SDS011;27766;52.174;5.456;2023-04-25T01:11:40;11.45;;;3.45;;
42110;SDS011;27766;52.174;5.456;2023-04-25T01:14:07;9.73;;;3.78;;
42110;SDS011;27766;52.174;5.456;2023-04-25T01:16:34;19.55;;;4.30;;
42110;SDS011;27766;52.174;5.456;2023-04-25T01:19:01;13.85;;;4.63;;
42110;SDS011;27766;52.174;5.456;2023-04-25T01:21:35;8.48;;;3.28;;
42110;SDS011;27766;52.174;5.456;2023-04-25T01:24:02;14.65;;;4.20;;
42110;SDS011;27766;52.174;5.456;2023-04-25T01:26:30;11.82;;;3.53;;
42110;SDS011;27766;52.174;5.456;2023-04-25T01:28:58;15.40;;;3.88;;
42110;SDS011;27766;52.174;5.456;2023-04-25T01:31:26;20.70;;;3.95;;
42110;SDS011;27766;52.174;5.456;2023-04-25T01:33:54;12.68;;;3.92;;
42110;SDS011;27766;52.174;5.456;2023-04-25T01:36:22;9.27;;;3.20;;
42110;SDS011;27766;52.174;5.456;2023-04-25T01:38:49;13.10;;;3.53;;
42110;SDS011;27766;52.174;5.456;2023-04-25T01:41:17;19.00;;;3.35;;
42110;SDS011;27766;52.174;5.456;2023-04-25T01:43:44;15.93;;;4.28;;
42110;SDS011;27766;52.174;5.456;2023-04-25T01:46:11;6.28;;;3.10;;
42110;SDS011;27766;52.174;5.456;2023-04-25T01:48:39;10.60;;;3.10;;
42110;SDS011;27766;52.174;5.456;2023-04-25T01:51:06;19.90;;;3.88;;
42110;SDS011;27766;52.174;5.456;2023-04-25T01:53:33;8.60;;;3.33;;
42110;SDS011;27766;52.174;5.456;2023-04-25T01:56:00;22.02;;;3.55;;
42110;SDS011;27766;52.174;5.456;2023-04-25T01:58:27;9.50;;;4.05;;
42110;SDS011;27766;52.174;5.456;2023-04-25T02:00:54;10.98;;;3.28;;
42110;SDS011;27766;52.174;5.456;2023-04-25T02:03:25;8.40;;;3.95;;
42110;SDS011;27766;52.174;5.456;2023-04-25T02:05:52;11.15;;;3.90;;
42110;SDS011;27766;52.174;5.456;2023-04-25T02:08:19;9.60;;;2.97;;
42110;SDS011;27766;52.174;5.456;2023-04-25T02:10:46;10.50;;;3.50;;
42110;SDS011;27766;52.174;5.456;2023-04-25T02:13:13;14.93;;;3.95;;
42110;SDS011;27766;52.174;5.456;2023-04-25T02:15:41;13.70;;;3.65;;
42110;SDS011;27766;52.174;5.456;2023-04-25T02:18:08;14.90;;;4.05;;
42110;SDS011;27766;52.174;5.456;2023-04-25T02:20:37;17.40;;;4.15;;
42110;SDS011;27766;52.174;5.456;2023-04-25T02:23:04;10.68;;;3.10;;
42110;SDS011;27766;52.174;5.456;2023-04-25T02:25:31;15.20;;;3.60;;
42110;SDS011;27766;52.174;5.456;2023-04-25T02:27:59;14.00;;;3.17;;
42110;SDS011;27766;52.174;5.456;2023-04-25T02:30:26;18.88;;;3.88;;
42110;SDS011;27766;52.174;5.456;2023-04-25T02:32:53;9.15;;;3.67;;
42110;SDS011;27766;52.174;5.456;2023-04-25T02:35:20;16.05;;;3.65;;
42110;SDS011;27766;52.174;5.456;2023-04-25T02:37:48;13.80;;;4.22;;
42110;SDS011;27766;52.174;5.456;2023-04-25T02:40:15;20.10;;;4.03;;
42110;SDS011;27766;52.174;5.456;2023-04-25T02:42:42;13.02;;;3.75;;
42110;SDS011;27766;52.174;5.456;2023-04-25T02:45:09;13.38;;;3.75;;
42110;SDS011;27766;52.174;5.456;2023-04-25T02:47:37;8.18;;;3.10;;
42110;SDS011;27766;52.174;5.456;2023-04-25T02:50:04;9.13;;;3.28;;
42110;SDS011;27766;52.174;5.456;2023-04-25T02:52:32;7.57;;;3.08;;
42110;SDS011;27766;52.174;5.456;2023-04-25T02:54:59;14.77;;;4.00;;
42110;SDS011;27766;52.174;5.456;2023-04-25T02:57:26;13.43;;;3.65;;
42110;SDS011;27766;52.174;5.456;2023-04-25T02:59:53;13.05;;;3.22;;
42110;SDS011;27766;52.174;5.456;2023-04-25T03:02:20;17.25;;;3.90;;
42110;SDS011;27766;52.174;5.456;2023-04-25T03:04:47;15.43;;;3.97;;
42110;SDS011;27766;52.174;5.456;2023-04-25T03:07:14;11.93;;;3.33;;
42110;SDS011;27766;52.174;5.456;2023-04-25T03:09:41;19.45;;;4.45;;
42110;SDS011;27766;52.174;5.456;2023-04-25T03:12:08;9.35;;;3.45;;
42110;SDS011;27766;52.174;5.456;2023-04-25T03:14:35;16.08;;;4.15;;
42110;SDS011;27766;52.174;5.456;2023-04-25T03:17:02;13.27;;;3.42;;
42110;SDS011;27766;52.174;5.456;2023-04-25T03:19:29;8.07;;;2.80;;
42110;SDS011;27766;52.174;5.456;2023-04-25T03:21:57;13.00;;;3.28;;
42110;SDS011;27766;52.174;5.456;2023-04-25T03:24:24;11.05;;;3.58;;
42110;SDS011;27766;52.174;5.456;2023-04-25T03:26:51;10.57;;;2.80;;
42110;SDS011;27766;52.174;5.456;2023-04-25T03:29:18;11.80;;;4.72;;
42110;SDS011;27766;52.174;5.456;2023-04-25T03:31:45;11.52;;;4.28;;
42110;SDS011;27766;52.174;5.456;2023-04-25T03:34:12;15.30;;;3.60;;
42110;SDS011;27766;52.174;5.456;2023-04-25T03:36:41;10.60;;;3.83;;
42110;SDS011;27766;52.174;5.456;2023-04-25T03:39:08;13.70;;;4.13;;
42110;SDS011;27766;52.174;5.456;2023-04-25T03:41:35;11.48;;;3.95;;
42110;SDS011;27766;52.174;5.456;2023-04-25T03:44:02;15.10;;;3.58;;
42110;SDS011;27766;52.174;5.456;2023-04-25T03:46:29;9.00;;;3.65;;
42110;SDS011;27766;52.174;5.456;2023-04-25T03:48:57;14.02;;;4.13;;
42110;SDS011;27766;52.174;5.456;2023-04-25T03:51:24;19.88;;;4.72;;
42110;SDS011;27766;52.174;5.456;2023-04-25T03:53:51;8.95;;;3.28;;
42110;SDS011;27766;52.174;5.456;2023-04-25T03:56:19;13.98;;;3.95;;
42110;SDS011;27766;52.174;5.456;2023-04-25T03:58:47;15.60;;;3.67;;
42110;SDS011;27766;52.174;5.456;2023-04-25T04:01:14;16.15;;;3.72;;
42110;SDS011;27766;52.174;5.456;2023-04-25T04:03:41;7.53;;;2.95;;
42110;SDS011;27766;52.174;5.456;2023-04-25T04:06:08;9.07;;;3.67;;
42110;SDS011;27766;52.174;5.456;2023-04-25T04:08:35;13.85;;;3.50;;
42110;SDS011;27766;52.174;5.456;2023-04-25T04:11:02;6.30;;;2.38;;
42110;SDS011;27766;52.174;5.456;2023-04-25T04:13:29;17.27;;;3.55;;
42110;SDS011;27766;52.174;5.456;2023-04-25T04:15:57;16.25;;;2.85;;
42110;SDS011;27766;52.174;5.456;2023-04-25T04:18:24;11.20;;;2.38;;
42110;SDS011;27766;52.174;5.456;2023-04-25T04:20:52;9.30;;;2.30;;
42110;SDS011;27766;52.174;5.456;2023-04-25T04:23:19;12.13;;;2.05;;
42110;SDS011;27766;52.174;5.456;2023-04-25T04:25:48;6.80;;;1.60;;
42110;SDS011;27766;52.174;5.456;2023-04-25T04:28:15;11.65;;;2.45;;
42110;SDS011;27766;52.174;5.456;2023-04-25T04:30:43;7.10;;;1.77;;
42110;SDS011;27766;52.174;5.456;2023-04-25T04:33:13;8.43;;;1.70;;
42110;SDS011;27766;52.174;5.456;2023-04-25T04:35:41;5.07;;;1.92;;
42110;SDS011;27766;52.174;5.456;2023-04-25T04:38:09;5.97;;;1.85;;
42110;SDS011;27766;52.174;5.456;2023-04-25T04:40:37;9.23;;;2.28;;
42110;SDS011;27766;52.174;5.456;2023-04-25T04:43:04;5.78;;;1.70;;
42110;SDS011;27766;52.174;5.456;2023-04-25T04:45:32;9.18;;;2.05;;
42110;SDS011;27766;52.174;5.456;2023-04-25T04:48:00;5.53;;;1.60;;
42110;SDS011;27766;52.174;5.456;2023-04-25T04:50:27;11.93;;;1.88;;
42110;SDS011;27766;52.174;5.456;2023-04-25T04:52:54;4.18;;;1.45;;
42110;SDS011;27766;52.174;5.456;2023-04-25T04:55:22;2.78;;;1.38;;
42110;SDS011;27766;52.174;5.456;2023-04-25T04:57:49;9.20;;;1.70;;
42110;SDS011;27766;52.174;5.456;2023-04-25T05:00:17;5.30;;;1.13;;
42110;SDS011;27766;52.174;5.456;2023-04-25T05:02:44;6.88;;;2.05;;
42110;SDS011;27766;52.174;5.456;2023-04-25T05:05:12;10.27;;;2.25;;
42110;SDS011;27766;52.174;5.456;2023-04-25T05:07:40;5.97;;;1.95;;
42110;SDS011;27766;52.174;5.456;2023-04-25T05:10:07;7.75;;;1.55;;
42110;SDS011;27766;52.174;5.456;2023-04-25T05:12:34;8.40;;;1.35;;
42110;SDS011;27766;52.174;5.456;2023-04-25T05:15:03;9.50;;;1.95;;
42110;SDS011;27766;52.174;5.456;2023-04-25T05:17:30;6.38;;;1.58;;
42110;SDS011;27766;52.174;5.456;2023-04-25T05:19:57;9.70;;;2.35;;
42110;SDS011;27766;52.174;5.456;2023-04-25T05:22:24;6.40;;;1.73;;
42110;SDS011;27766;52.174;5.456;2023-04-25T05:24:52;11.45;;;2.42;;
42110;SDS011;27766;52.174;5.456;2023-04-25T05:27:21;7.00;;;2.35;;
42110;SDS011;27766;52.174;5.456;2023-04-25T05:29:49;5.43;;;1.50;;
42110;SDS011;27766;52.174;5.456;2023-04-25T05:32:16;4.20;;;1.55;;
42110;SDS011;27766;52.174;5.456;2023-04-25T05:34:44;5.35;;;1.92;;
42110;SDS011;27766;52.174;5.456;2023-04-25T05:37:11;8.82;;;2.20;;
42110;SDS011;27766;52.174;5.456;2023-04-25T05:39:38;14.75;;;2.50;;
42110;SDS011;27766;52.174;5.456;2023-04-25T05:42:06;10.02;;;2.30;;
42110;SDS011;27766;52.174;5.456;2023-04-25T05:44:33;6.90;;;2.50;;
42110;SDS011;27766;52.174;5.456;2023-04-25T05:47:00;15.10;;;2.80;;
42110;SDS011;27766;52.174;5.456;2023-04-25T05:49:27;6.93;;;1.67;;
42110;SDS011;27766;52.174;5.456;2023-04-25T05:51:54;6.20;;;2.05;;
42110;SDS011;27766;52.174;5.456;2023-04-25T05:54:21;11.38;;;2.47;;
42110;SDS011;27766;52.174;5.456;2023-04-25T05:56:49;7.78;;;2.15;;
42110;SDS011;27766;52.174;5.456;2023-04-25T05:59:16;6.68;;;1.38;;
42110;SDS011;27766;52.174;5.456;2023-04-25T06:01:43;8.07;;;2.47;;
42110;SDS011;27766;52.174;5.456;2023-04-25T06:04:10;5.57;;;2.08;;
42110;SDS011;27766;52.174;5.456;2023-04-25T06:06:38;6.28;;;1.52;;
42110;SDS011;27766;52.174;5.456;2023-04-25T06:09:05;5.97;;;2.22;;
42110;SDS011;27766;52.174;5.456;2023-04-25T06:11:32;6.00;;;1.88;;
42110;SDS011;27766;52.174;5.456;2023-04-25T06:14:00;6.90;;;2.80;;
42110;SDS011;27766;52.174;5.456;2023-04-25T06:16:27;17.10;;;2.35;;
42110;SDS011;27766;52.174;5.456;2023-04-25T06:18:54;6.85;;;1.73;;
42110;SDS011;27766;52.174;5.456;2023-04-25T06:21:21;11.27;;;2.30;;
42110;SDS011;27766;52.174;5.456;2023-04-25T06:23:48;9.45;;;2.13;;
42110;SDS011;27766;52.174;5.456;2023-04-25T06:26:16;4.25;;;1.73;;
42110;SDS011;27766;52.174;5.456;2023-04-25T06:28:43;9.75;;;2.35;;
42110;SDS011;27766;52.174;5.456;2023-04-25T06:31:10;4.82;;;2.13;;
42110;SDS011;27766;52.174;5.456;2023-04-25T06:33:38;7.47;;;2.00;;
42110;SDS011;27766;52.174;5.456;2023-04-25T06:36:05;5.35;;;1.75;;
42110;SDS011;27766;52.174;5.456;2023-04-25T06:38:32;5.60;;;1.83;;
42110;SDS011;27766;52.174;5.456;2023-04-25T06:41:00;9.98;;;2.03;;
42110;SDS011;27766;52.174;5.456;2023-04-25T06:43:27;4.72;;;2.00;;
42110;SDS011;27766;52.174;5.456;2023-04-25T06:45:54;7.22;;;1.67;;
42110;SDS011;27766;52.174;5.456;2023-04-25T06:48:21;10.95;;;2.05;;
42110;SDS011;27766;52.174;5.456;2023-04-25T06:50:48;11.85;;;2.15;;
42110;SDS011;27766;52.174;5.456;2023-04-25T06:53:15;13.32;;;1.92;;
42110;SDS011;27766;52.174;5.456;2023-04-25T06:55:43;10.25;;;2.20;;
42110;SDS011;27766;52.174;5.456;2023-04-25T06:58:10;7.18;;;2.13;;
42110;SDS011;27766;52.174;5.456;2023-04-25T07:00:37;4.88;;;1.48;;
42110;SDS011;27766;52.174;5.456;2023-04-25T07:03:04;11.32;;;1.48;;
42110;SDS011;27766;52.174;5.456;2023-04-25T07:05:32;7.35;;;1.58;;
42110;SDS011;27766;52.174;5.456;2023-04-25T07:07:59;4.72;;;1.70;;
42110;SDS011;27766;52.174;5.456;2023-04-25T07:10:27;6.88;;;1.50;;
42110;SDS011;27766;52.174;5.456;2023-04-25T07:12:54;6.82;;;1.33;;
42110;SDS011;27766;52.174;5.456;2023-04-25T07:15:21;7.82;;;1.85;;
42110;SDS011;27766;52.174;5.456;2023-04-25T07:17:48;5.25;;;1.33;;
42110;SDS011;27766;52.174;5.456;2023-04-25T07:20:16;10.98;;;2.25;;
42110;SDS011;27766;52.174;5.456;2023-04-25T07:22:43;8.75;;;1.85;;
42110;SDS011;27766;52.174;5.456;2023-04-25T07:25:10;6.03;;;1.25;;
42110;SDS011;27766;52.174;5.456;2023-04-25T07:27:37;7.78;;;2.22;;
42110;SDS011;27766;52.174;5.456;2023-04-25T07:30:05;6.40;;;1.30;;
42110;SDS011;27766;52.174;5.456;2023-04-25T07:32:33;5.65;;;1.23;;
42110;SDS011;27766;52.174;5.456;2023-04-25T07:35:01;4.93;;;1.30;;
42110;SDS011;27766;52.174;5.456;2023-04-25T07:37:29;10.00;;;2.00;;
42110;SDS011;27766;52.174;5.456;2023-04-25T07:39:57;8.48;;;1.42;;
42110;SDS011;27766;52.174;5.456;2023-04-25T07:42:24;6.35;;;1.38;;
42110;SDS011;27766;52.174;5.456;2023-04-25T07:44:51;4.18;;;0.85;;
42110;SDS011;27766;52.174;5.456;2023-04-25T07:47:18;4.65;;;0.98;;
42110;SDS011;27766;52.174;5.456;2023-04-25T07:49:46;5.80;;;1.92;;
42110;SDS011;27766;52.174;5.456;2023-04-25T07:52:13;4.68;;;1.23;;
42110;SDS011;27766;52.174;5.456;2023-04-25T07:54:40;2.33;;;1.08;;
42110;SDS011;27766;52.174;5.456;2023-04-25T07:57:08;8.57;;;1.40;;
42110;SDS011;27766;52.174;5.456;2023-04-25T07:59:35;11.93;;;1.23;;
42110;SDS011;27766;52.174;5.456;2023-04-25T08:02:02;11.85;;;1.65;;
42110;SDS011;27766;52.174;5.456;2023-04-25T08:04:29;5.68;;;1.23;;
42110;SDS011;27766;52.174;5.456;2023-04-25T08:06:57;6.72;;;1.67;;
42110;SDS011;27766;52.174;5.456;2023-04-25T08:09:24;6.28;;;1.45;;
42110;SDS011;27766;52.174;5.456;2023-04-25T08:11:52;8.68;;;1.65;;
42110;SDS011;27766;52.174;5.456;2023-04-25T08:14:19;5.05;;;1.73;;
42110;SDS011;27766;52.174;5.456;2023-04-25T08:16:47;6.93;;;1.25;;
42110;SDS011;27766;52.174;5.456;2023-04-25T08:19:14;6.43;;;1.90;;
42110;SDS011;27766;52.174;5.456;2023-04-25T08:21:41;3.65;;;1.30;;
42110;SDS011;27766;52.174;5.456;2023-04-25T08:24:08;4.70;;;1.13;;
42110;SDS011;27766;52.174;5.456;2023-04-25T08:26:35;4.85;;;1.20;;
42110;SDS011;27766;52.174;5.456;2023-04-25T08:29:04;7.30;;;1.38;;
42110;SDS011;27766;52.174;5.456;2023-04-25T08:31:32;7.00;;;1.17;;
42110;SDS011;27766;52.174;5.456;2023-04-25T08:33:59;3.17;;;0.90;;
42110;SDS011;27766;52.174;5.456;2023-04-25T08:36:27;3.60;;;1.10;;
42110;SDS011;27766;52.174;5.456;2023-04-25T08:39:05;4.13;;;1.17;;
42110;SDS011;27766;52.174;5.456;2023-04-25T08:41:34;1.75;;;0.73;;
42110;SDS011;27766;52.174;5.456;2023-04-25T08:44:03;7.18;;;1.02;;
42110;SDS011;27766;52.174;5.456;2023-04-25T08:46:31;7.28;;;1.35;;
42110;SDS011;27766;52.174;5.456;2023-04-25T08:49:02;7.80;;;1.02;;
42110;SDS011;27766;52.174;5.456;2023-04-25T08:51:30;5.68;;;1.25;;
42110;SDS011;27766;52.174;5.456;2023-04-25T08:54:04;4.85;;;0.80;;
42110;SDS011;27766;52.174;5.456;2023-04-25T08:57:00;3.65;;;1.17;;
42110;SDS011;27766;52.174;5.456;2023-04-25T08:59:32;4.28;;;1.35;;
42110;SDS011;27766;52.174;5.456;2023-04-25T09:01:59;1.35;;;0.50;;
42110;SDS011;27766;52.174;5.456;2023-04-25T09:04:27;6.07;;;1.02;;
42110;SDS011;27766;52.174;5.456;2023-04-25T09:06:57;3.40;;;1.13;;
42110;SDS011;27766;52.174;5.456;2023-04-25T09:09:25;3.70;;;1.17;;
42110;SDS011;27766;52.174;5.456;2023-04-25T09:11:53;4.88;;;0.93;;
42110;SDS011;27766;52.174;5.456;2023-04-25T09:14:21;5.30;;;1.00;;
42110;SDS011;27766;52.174;5.456;2023-04-25T09:19:27;2.42;;;0.73;;
42110;SDS011;27766;52.174;5.456;2023-04-25T09:22:06;4.72;;;0.65;;
42110;SDS011;27766;52.174;5.456;2023-04-25T09:24:35;7.22;;;1.00;;
42110;SDS011;27766;52.174;5.456;2023-04-25T09:27:05;6.70;;;0.93;;
42110;SDS011;27766;52.174;5.456;2023-04-25T09:29:34;7.78;;;0.77;;
42110;SDS011;27766;52.174;5.456;2023-04-25T09:34:44;2.60;;;0.75;;
42110;SDS011;27766;52.174;5.456;2023-04-25T09:37:18;1.38;;;0.85;;
42110;SDS011;27766;52.174;5.456;2023-04-25T09:42:23;1.38;;;0.63;;
42110;SDS011;27766;52.174;5.456;2023-04-25T09:44:52;3.95;;;0.93;;
42110;SDS011;27766;52.174;5.456;2023-04-25T09:47:22;2.85;;;0.65;;
42110;SDS011;27766;52.174;5.456;2023-04-25T09:49:51;4.72;;;0.65;;
42110;SDS011;27766;52.174;5.456;2023-04-25T09:52:20;3.83;;;0.98;;
42110;SDS011;27766;52.174;5.456;2023-04-25T09:54:52;4.40;;;1.30;;
42110;SDS011;27766;52.174;5.456;2023-04-25T09:57:21;2.45;;;0.85;;
42110;SDS011;27766;52.174;5.456;2023-04-25T09:59:51;2.45;;;0.98;;
42110;SDS011;27766;52.174;5.456;2023-04-25T10:02:23;5.10;;;0.95;;
42110;SDS011;27766;52.174;5.456;2023-04-25T10:04:53;3.63;;;0.98;;
42110;SDS011;27766;52.174;5.456;2023-04-25T10:07:23;3.00;;;1.27;;
42110;SDS011;27766;52.174;5.456;2023-04-25T10:10:00;5.10;;;1.35;;
42110;SDS011;27766;52.174;5.456;2023-04-25T10:12:29;3.08;;;1.00;;
42110;SDS011;27766;52.174;5.456;2023-04-25T10:15:01;6.15;;;1.20;;
42110;SDS011;27766;52.174;5.456;2023-04-25T10:17:31;6.22;;;1.65;;
42110;SDS011;27766;52.174;5.456;2023-04-25T10:20:00;4.15;;;1.40;;
42110;SDS011;27766;52.174;5.456;2023-04-25T10:22:31;6.55;;;0.82;;
42110;SDS011;27766;52.174;5.456;2023-04-25T10:25:01;5.53;;;0.98;;
42110;SDS011;27766;52.174;5.456;2023-04-25T10:27:32;2.95;;;1.00;;
42110;SDS011;27766;52.174;5.456;2023-04-25T10:30:02;4.53;;;1.05;;
42110;SDS011;27766;52.174;5.456;2023-04-25T10:32:31;6.53;;;1.25;;
42110;SDS011;27766;52.174;5.456;2023-04-25T10:35:15;2.00;;;0.70;;
42110;SDS011;27766;52.174;5.456;2023-04-25T10:40:30;2.20;;;0.80;;
42110;SDS011;27766;52.174;5.456;2023-04-25T10:46:24;6.72;;;1.20;;
42110;SDS011;27766;52.174;5.456;2023-04-25T10:48:54;5.22;;;1.00;;
42110;SDS011;27766;52.174;5.456;2023-04-25T10:51:23;3.55;;;1.05;;
42110;SDS011;27766;52.174;5.456;2023-04-25T10:56:22;1.92;;;0.57;;
42110;SDS011;27766;52.174;5.456;2023-04-25T10:58:52;1.88;;;0.70;;
42110;SDS011;27766;52.174;5.456;2023-04-25T11:01:35;3.92;;;1.00;;
42110;SDS011;27766;52.174;5.456;2023-04-25T11:04:16;3.47;;;1.10;;
42110;SDS011;27766;52.174;5.456;2023-04-25T11:09:34;5.72;;;1.13;;
42110;SDS011;27766;52.174;5.456;2023-04-25T11:12:12;3.05;;;1.10;;
42110;SDS011;27766;52.174;5.456;2023-04-25T11:14:39;1.42;;;0.77;;
42110;SDS011;27766;52.174;5.456;2023-04-25T11:17:07;7.60;;;1.48;;
42110;SDS011;27766;52.174;5.456;2023-04-25T11:19:35;2.72;;;1.33;;
42110;SDS011;27766;52.174;5.456;2023-04-25T11:22:03;5.30;;;1.25;;
42110;SDS011;27766;52.174;5.456;2023-04-25T11:24:31;8.52;;;1.23;;
42110;SDS011;27766;52.174;5.456;2023-04-25T11:26:59;4.97;;;0.90;;
42110;SDS011;27766;52.174;5.456;2023-04-25T11:29:31;2.10;;;1.20;;
42110;SDS011;27766;52.174;5.456;2023-04-25T11:32:00;2.28;;;1.02;;
42110;SDS011;27766;52.174;5.456;2023-04-25T11:34:29;3.92;;;1.40;;
42110;SDS011;27766;52.174;5.456;2023-04-25T11:36:58;6.13;;;1.00;;
42110;SDS011;27766;52.174;5.456;2023-04-25T11:39:26;10.73;;;1.50;;
42110;SDS011;27766;52.174;5.456;2023-04-25T11:41:54;1.92;;;0.90;;
42110;SDS011;27766;52.174;5.456;2023-04-25T11:44:22;6.10;;;1.90;;
42110;SDS011;27766;52.174;5.456;2023-04-25T11:46:49;6.20;;;1.40;;
42110;SDS011;27766;52.174;5.456;2023-04-25T11:49:16;8.50;;;1.08;;
42110;SDS011;27766;52.174;5.456;2023-04-25T11:51:45;5.78;;;0.85;;
42110;SDS011;27766;52.174;5.456;2023-04-25T11:54:14;5.03;;;1.35;;
42110;SDS011;27766;52.174;5.456;2023-04-25T11:56:43;3.58;;;1.38;;
42110;SDS011;27766;52.174;5.456;2023-04-25T11:59:11;2.50;;;0.93;;
42110;SDS011;27766;52.174;5.456;2023-04-25T12:01:40;9.65;;;1.17;;
42110;SDS011;27766;52.174;5.456;2023-04-25T12:04:15;3.92;;;1.20;;
42110;SDS011;27766;52.174;5.456;2023-04-25T12:06:47;6.68;;;1.15;;
42110;SDS011;27766;52.174;5.456;2023-04-25T12:09:17;5.22;;;1.08;;
42110;SDS011;27766;52.174;5.456;2023-04-25T12:11:49;4.40;;;1.35;;
42110;SDS011;27766;52.174;5.456;2023-04-25T12:14:21;6.07;;;1.10;;
42110;SDS011;27766;52.174;5.456;2023-04-25T12:16:58;6.07;;;1.60;;
42110;SDS011;27766;52.174;5.456;2023-04-25T12:19:29;5.20;;;1.17;;
42110;SDS011;27766;52.174;5.456;2023-04-25T12:22:00;6.30;;;1.20;;
42110;SDS011;27766;52.174;5.456;2023-04-25T12:24:45;5.45;;;1.63;;
42110;SDS011;27766;52.174;5.456;2023-04-25T12:27:14;2.15;;;0.93;;
42110;SDS011;27766;52.174;5.456;2023-04-25T12:29:49;2.38;;;0.95;;
42110;SDS011;27766;52.174;5.456;2023-04-25T12:32:21;2.70;;;1.02;;
42110;SDS011;27766;52.174;5.456;2023-04-25T12:34:50;6.30;;;1.42;;
42110;SDS011;27766;52.174;5.456;2023-04-25T12:37:17;2.67;;;0.55;;
42110;SDS011;27766;52.174;5.456;2023-04-25T12:39:44;2.50;;;0.57;;
42110;SDS011;27766;52.174;5.456;2023-04-25T12:42:12;1.05;;;0.63;;
42110;SDS011;27766;52.174;5.456;2023-04-25T12:44:39;4.30;;;0.70;;
42110;SDS011;27766;52.174;5.456;2023-04-25T12:47:07;3.65;;;1.00;;
42110;SDS011;27766;52.174;5.456;2023-04-25T12:49:34;12.10;;;0.82;;
42110;SDS011;27766;52.174;5.456;2023-04-25T12:52:02;2.85;;;0.60;;
42110;SDS011;27766;52.174;5.456;2023-04-25T12:54:29;3.45;;;0.70;;
42110;SDS011;27766;52.174;5.456;2023-04-25T12:56:57;3.72;;;0.82;;
42110;SDS011;27766;52.174;5.456;2023-04-25T12:59:24;2.85;;;0.70;;
42110;SDS011;27766;52.174;5.456;2023-04-25T13:01:51;9.57;;;0.80;;
42110;SDS011;27766;52.174;5.456;2023-04-25T13:04:19;2.78;;;1.00;;
42110;SDS011;27766;52.174;5.456;2023-04-25T13:06:48;3.63;;;1.15;;
42110;SDS011;27766;52.174;5.456;2023-04-25T13:09:16;3.40;;;0.73;;
42110;SDS011;27766;52.174;5.456;2023-04-25T13:11:43;2.75;;;0.80;;
42110;SDS011;27766;52.174;5.456;2023-04-25T13:14:10;1.88;;;0.80;;
42110;SDS011;27766;52.174;5.456;2023-04-25T13:16:37;3.22;;;1.13;;
42110;SDS011;27766;52.174;5.456;2023-04-25T13:19:04;3.13;;;1.17;;
42110;SDS011;27766;52.174;5.456;2023-04-25T13:21:34;3.35;;;0.88;;
42110;SDS011;27766;52.174;5.456;2023-04-25T13:24:01;4.18;;;1.10;;
42110;SDS011;27766;52.174;5.456;2023-04-25T13:26:29;4.70;;;1.20;;
42110;SDS011;27766;52.174;5.456;2023-04-25T13:28:56;8.23;;;1.27;;
42110;SDS011;27766;52.174;5.456;2023-04-25T13:31:23;4.00;;;1.10;;
42110;SDS011;27766;52.174;5.456;2023-04-25T13:33:51;8.85;;;1.35;;
42110;SDS011;27766;52.174;5.456;2023-04-25T13:36:19;3.22;;;1.13;;
42110;SDS011;27766;52.174;5.456;2023-04-25T13:38:47;7.07;;;1.10;;
42110;SDS011;27766;52.174;5.456;2023-04-25T13:41:15;3.83;;;0.85;;
42110;SDS011;27766;52.174;5.456;2023-04-25T13:43:46;3.80;;;0.98;;
42110;SDS011;27766;52.174;5.456;2023-04-25T13:46:14;5.00;;;1.65;;
42110;SDS011;27766;52.174;5.456;2023-04-25T13:49:02;3.22;;;1.20;;
42110;SDS011;27766;52.174;5.456;2023-04-25T13:51:38;2.95;;;0.60;;
42110;SDS011;27766;52.174;5.456;2023-04-25T13:54:06;9.30;;;1.52;;
42110;SDS011;27766;52.174;5.456;2023-04-25T13:56:34;6.20;;;0.82;;
42110;SDS011;27766;52.174;5.456;2023-04-25T13:59:01;4.18;;;1.15;;
42110;SDS011;27766;52.174;5.456;2023-04-25T14:01:28;2.05;;;0.82;;
42110;SDS011;27766;52.174;5.456;2023-04-25T14:03:57;2.58;;;0.88;;
42110;SDS011;27766;52.174;5.456;2023-04-25T14:06:25;4.43;;;1.30;;
42110;SDS011;27766;52.174;5.456;2023-04-25T14:08:55;4.25;;;1.30;;
42110;SDS011;27766;52.174;5.456;2023-04-25T14:11:23;3.08;;;0.90;;
42110;SDS011;27766;52.174;5.456;2023-04-25T14:13:50;3.70;;;1.23;;
42110;SDS011;27766;52.174;5.456;2023-04-25T14:16:17;5.80;;;0.90;;
42110;SDS011;27766;52.174;5.456;2023-04-25T14:18:45;8.63;;;1.05;;
42110;SDS011;27766;52.174;5.456;2023-04-25T14:21:12;3.47;;;0.95;;
42110;SDS011;27766;52.174;5.456;2023-04-25T14:23:39;3.38;;;1.20;;
42110;SDS011;27766;52.174;5.456;2023-04-25T14:26:07;9.50;;;1.27;;
42110;SDS011;27766;52.174;5.456;2023-04-25T14:28:34;4.72;;;1.50;;
42110;SDS011;27766;52.174;5.456;2023-04-25T14:31:01;1.58;;;0.77;;
42110;SDS011;27766;52.174;5.456;2023-04-25T14:33:28;1.90;;;0.90;;
42110;SDS011;27766;52.174;5.456;2023-04-25T14:35:56;1.85;;;1.05;;
42110;SDS011;27766;52.174;5.456;2023-04-25T14:38:23;3.03;;;1.23;;
42110;SDS011;27766;52.174;5.456;2023-04-25T14:40:52;2.88;;;1.48;;
42110;SDS011;27766;52.174;5.456;2023-04-25T14:43:20;5.25;;;0.98;;
42110;SDS011;27766;52.174;5.456;2023-04-25T14:45:47;3.40;;;1.00;;
42110;SDS011;27766;52.174;5.456;2023-04-25T14:48:15;4.68;;;1.20;;
42110;SDS011;27766;52.174;5.456;2023-04-25T14:50:46;2.13;;;0.70;;
42110;SDS011;27766;52.174;5.456;2023-04-25T14:53:13;2.30;;;1.10;;
42110;SDS011;27766;52.174;5.456;2023-04-25T14:55:40;3.17;;;1.23;;
42110;SDS011;27766;52.174;5.456;2023-04-25T14:58:07;3.30;;;1.33;;
42110;SDS011;27766;52.174;5.456;2023-04-25T15:00:34;4.75;;;1.05;;
42110;SDS011;27766;52.174;5.456;2023-04-25T15:03:02;4.13;;;0.70;;
42110;SDS011;27766;52.174;5.456;2023-04-25T15:05:29;3.60;;;1.33;;
42110;SDS011;27766;52.174;5.456;2023-04-25T15:07:57;2.40;;;0.88;;